createdAt,value
2018-05-02T00:00:13.936Z,77.09
2018-05-02T00:01:14.011Z,77.09
2018-05-02T00:02:13.886Z,77.18
2018-05-02T00:03:13.607Z,76.99
2018-05-02T00:04:13.827Z,76.99
2018-05-02T00:05:13.798Z,77.47
2018-05-02T00:06:13.521Z,77.47
2018-05-02T00:07:13.496Z,77.47
2018-05-02T00:08:13.713Z,77.37
2018-05-02T00:09:13.684Z,77.56
2018-05-02T00:10:13.659Z,77.56
2018-05-02T00:11:13.634Z,77.56
2018-05-02T00:12:13.606Z,77.47
2018-05-02T00:13:13.577Z,77.56
2018-05-02T00:14:13.551Z,77.66
2018-05-02T00:15:13.525Z,77.75
2018-05-02T00:16:13.501Z,77.75
2018-05-02T00:17:13.220Z,77.75
2018-05-02T00:18:13.620Z,77.94
2018-05-02T00:19:13.421Z,77.75
2018-05-02T00:20:13.385Z,78.13
2018-05-02T00:21:13.359Z,78.03
2018-05-02T00:22:13.329Z,77.56
2018-05-02T00:23:13.299Z,78.32
2018-05-02T00:24:13.271Z,78.13
2018-05-02T00:25:13.250Z,78.03
2018-05-02T00:26:13.222Z,78.03
2018-05-02T00:27:13.193Z,78.13
2018-05-02T00:28:13.161Z,78.03
2018-05-02T00:29:13.134Z,78.13
2018-05-02T00:30:13.103Z,77.94
2018-05-02T00:31:13.077Z,78.51
2018-05-02T00:32:13.052Z,78.13
2018-05-02T00:33:13.022Z,78.42
2018-05-02T00:34:13.004Z,78.42
2018-05-02T00:35:12.965Z,78.13
2018-05-02T00:36:12.941Z,78.32
2018-05-02T00:37:12.662Z,77.94
2018-05-02T00:38:12.888Z,78.51
2018-05-02T00:39:12.853Z,78.42
2018-05-02T00:40:12.833Z,78.32
2018-05-02T00:41:12.797Z,78.23
2018-05-02T00:42:12.769Z,78.23
2018-05-02T00:43:12.748Z,78.23
2018-05-02T00:44:12.719Z,78.51
2018-05-02T00:45:12.688Z,78.23
2018-05-02T00:46:12.663Z,78.51
2018-05-02T00:47:12.381Z,78.51
2018-05-02T00:48:12.602Z,78.51
2018-05-02T00:49:12.328Z,78.51
2018-05-02T00:50:12.549Z,78.7
2018-05-02T00:51:12.270Z,78.51
2018-05-02T00:52:12.492Z,78.51
2018-05-02T00:53:12.468Z,78.03
2018-05-02T00:54:12.440Z,79.27
2018-05-02T00:55:12.407Z,79.08
2018-05-02T00:56:12.381Z,79.17
2018-05-02T00:57:12.656Z,79.08
2018-05-02T00:58:12.323Z,79.27
2018-05-02T00:59:12.295Z,78.99
2018-05-02T01:00:12.268Z,79.27
2018-05-02T01:01:12.240Z,78.89
2018-05-02T01:02:12.231Z,78.51
2018-05-02T01:03:12.182Z,78.7
2018-05-02T01:04:12.166Z,78.42
2018-05-02T01:05:12.128Z,78.61
2018-05-02T01:06:12.103Z,78.13
2018-05-02T01:07:12.071Z,79.08
2018-05-02T01:08:12.043Z,78.99
2018-05-02T01:09:12.019Z,79.17
2018-05-02T01:10:11.985Z,79.08
2018-05-02T01:11:11.711Z,79.08
2018-05-02T01:12:11.933Z,78.99
2018-05-02T01:13:11.900Z,78.8
2018-05-02T01:14:11.877Z,78.8
2018-05-02T01:15:11.849Z,78.89
2018-05-02T01:16:11.853Z,79.08
2018-05-02T01:17:11.794Z,78.99
2018-05-02T01:18:11.761Z,79.08
2018-05-02T01:19:11.737Z,78.8
2018-05-02T01:20:11.717Z,78.51
2018-05-02T01:21:11.682Z,78.75
2018-05-02T01:22:11.655Z,79.23
2018-05-02T01:23:11.625Z,79.33
2018-05-02T01:24:11.597Z,79.14
2018-05-02T01:25:11.567Z,79.04
2018-05-02T01:26:11.543Z,79.52
2018-05-02T01:27:11.513Z,79.52
2018-05-02T01:28:11.234Z,79.23
2018-05-02T01:29:11.455Z,79.33
2018-05-02T01:30:11.429Z,79.33
2018-05-02T01:31:11.152Z,79.42
2018-05-02T01:32:11.369Z,79.52
2018-05-02T01:33:11.341Z,79.52
2018-05-02T01:34:11.316Z,79.71
2018-05-02T01:35:11.366Z,80.18
2018-05-02T01:36:11.259Z,80.08
2018-05-02T01:37:11.230Z,79.71
2018-05-02T01:38:11.203Z,79.8
2018-05-02T01:39:11.173Z,79.8
2018-05-02T01:40:11.146Z,79.99
2018-05-02T01:41:11.116Z,79.8
2018-05-02T01:42:11.089Z,80.56
2018-05-02T01:43:11.062Z,79.99
2018-05-02T01:44:11.030Z,80.46
2018-05-02T01:45:11.000Z,80.46
2018-05-02T01:46:10.974Z,80.46
2018-05-02T01:47:10.947Z,80.37
2018-05-02T01:48:10.918Z,80.56
2018-05-02T01:49:10.643Z,81.04
2018-05-02T01:50:10.863Z,80.75
2018-05-02T01:51:10.835Z,80.84
2018-05-02T01:52:10.806Z,80.65
2018-05-02T01:53:10.779Z,80.56
2018-05-02T01:54:10.749Z,80.75
2018-05-02T01:55:10.724Z,80.75
2018-05-02T01:56:10.695Z,80.75
2018-05-02T01:57:10.416Z,80.75
2018-05-02T01:58:10.635Z,80.75
2018-05-02T01:59:10.609Z,80.75
2018-05-02T02:00:10.583Z,80.75
2018-05-02T02:01:10.551Z,80.56
2018-05-02T02:02:10.275Z,80.65
2018-05-02T02:03:10.496Z,80.65
2018-05-02T02:04:10.469Z,80.65
2018-05-02T02:05:10.439Z,80.75
2018-05-02T02:06:10.413Z,80.56
2018-05-02T02:07:10.383Z,80.65
2018-05-02T02:08:10.432Z,80.37
2018-05-02T02:09:10.324Z,80.37
2018-05-02T02:10:10.301Z,80.84
2018-05-02T02:11:10.267Z,80.75
2018-05-02T02:12:10.244Z,80.56
2018-05-02T02:13:10.210Z,80.56
2018-05-02T02:14:10.183Z,80.37
2018-05-02T02:15:10.160Z,80.56
2018-05-02T02:16:10.135Z,80.65
2018-05-02T02:17:10.100Z,80.65
2018-05-02T02:18:10.075Z,80.56
2018-05-02T02:19:10.043Z,80.75
2018-05-02T02:20:10.015Z,80.65
2018-05-02T02:21:09.985Z,80.56
2018-05-02T02:22:09.960Z,80.56
2018-05-02T02:23:09.935Z,80.56
2018-05-02T02:24:09.917Z,80.56
2018-05-02T02:25:09.881Z,80.56
2018-05-02T02:26:09.846Z,80.37
2018-05-02T02:27:09.816Z,80.94
2018-05-02T02:28:09.799Z,80.94
2018-05-02T02:29:09.757Z,80.75
2018-05-02T02:30:09.730Z,81.23
2018-05-02T02:31:09.708Z,80.84
2018-05-02T02:32:09.675Z,81.32
2018-05-02T02:33:09.648Z,81.23
2018-05-02T02:34:09.835Z,81.32
2018-05-02T02:35:09.342Z,81.13
2018-05-02T02:36:09.562Z,81.13
2018-05-02T02:37:09.532Z,81.04
2018-05-02T02:38:09.512Z,81.23
2018-05-02T02:39:09.474Z,81.13
2018-05-02T02:40:09.447Z,81.13
2018-05-02T02:41:09.417Z,81.23
2018-05-02T02:42:09.390Z,81.32
2018-05-02T02:43:09.364Z,81.32
2018-05-02T02:44:09.338Z,81.41
2018-05-02T02:45:09.060Z,81.04
2018-05-02T02:46:09.283Z,81.23
2018-05-02T02:47:09.250Z,81.32
2018-05-02T02:48:09.222Z,81.51
2018-05-02T02:49:09.193Z,81.51
2018-05-02T02:50:08.916Z,81.7
2018-05-02T02:51:08.886Z,81.51
2018-05-02T02:52:09.112Z,81.88
2018-05-02T02:53:09.078Z,81.79
2018-05-02T02:54:09.050Z,82.17
2018-05-02T02:55:09.089Z,82.08
2018-05-02T02:56:08.747Z,81.85
2018-05-02T02:57:09.019Z,82.13
2018-05-02T02:58:08.936Z,82.08
2018-05-02T02:59:08.910Z,82.6
2018-05-02T03:00:08.631Z,82.23
2018-05-02T03:01:08.859Z,81.94
2018-05-02T03:02:08.837Z,81.85
2018-05-02T03:03:08.798Z,82.27
2018-05-02T03:04:08.771Z,82.65
2018-05-02T03:05:08.753Z,81.7
2018-05-02T03:06:08.722Z,82.17
2018-05-02T03:07:08.690Z,82.74
2018-05-02T03:08:08.403Z,81.88
2018-05-02T03:09:08.630Z,82.27
2018-05-02T03:10:08.602Z,82.08
2018-05-02T03:11:08.573Z,82.42
2018-05-02T03:12:08.289Z,82.51
2018-05-02T03:13:08.515Z,81.98
2018-05-02T03:14:08.480Z,82.42
2018-05-02T03:15:08.452Z,82.27
2018-05-02T03:16:08.175Z,82.23
2018-05-02T03:17:08.426Z,81.94
2018-05-02T03:18:08.367Z,82.42
2018-05-02T03:19:08.336Z,82.23
2018-05-02T03:20:08.308Z,82.23
2018-05-02T03:21:08.279Z,82.51
2018-05-02T03:22:08.253Z,82.6
2018-05-02T03:23:08.222Z,82.32
2018-05-02T03:24:08.207Z,82.89
2018-05-02T03:25:07.916Z,82.98
2018-05-02T03:26:07.885Z,82.89
2018-05-02T03:27:08.275Z,82.79
2018-05-02T03:28:08.077Z,82.98
2018-05-02T03:29:08.049Z,82.79
2018-05-02T03:30:08.034Z,83.08
2018-05-02T03:31:08.004Z,83.08
2018-05-02T03:32:07.715Z,82.98
2018-05-02T03:33:07.936Z,83.08
2018-05-02T03:34:07.906Z,83.08
2018-05-02T03:35:07.880Z,82.7
2018-05-02T03:36:07.607Z,82.89
2018-05-02T03:37:07.824Z,82.79
2018-05-02T03:38:07.793Z,83.08
2018-05-02T03:39:07.513Z,82.89
2018-05-02T03:40:07.733Z,82.98
2018-05-02T03:41:07.715Z,82.98
2018-05-02T03:42:07.427Z,82.98
2018-05-02T03:43:07.648Z,82.89
2018-05-02T03:44:07.617Z,82.89
2018-05-02T03:45:07.589Z,82.89
2018-05-02T03:46:07.312Z,83.08
2018-05-02T03:47:07.533Z,82.98
2018-05-02T03:48:07.502Z,82.89
2018-05-02T03:49:07.476Z,82.79
2018-05-02T03:50:07.447Z,82.84
2018-05-02T03:51:07.424Z,82.7
2018-05-02T03:52:07.391Z,82.46
2018-05-02T03:53:07.546Z,82.46
2018-05-02T03:54:07.085Z,82.46
2018-05-02T03:55:07.307Z,82.42
2018-05-02T03:56:07.025Z,82.55
2018-05-02T03:57:07.247Z,82.55
2018-05-02T03:58:07.217Z,82.46
2018-05-02T03:59:07.188Z,82.65
2018-05-02T04:00:07.159Z,82.55
2018-05-02T04:01:06.881Z,82.55
2018-05-02T04:02:07.101Z,82.46
2018-05-02T04:03:07.073Z,82.74
2018-05-02T04:04:07.048Z,82.46
2018-05-02T04:05:07.015Z,82.46
2018-05-02T04:06:06.739Z,82.55
2018-05-02T04:07:06.959Z,82.27
2018-05-02T04:08:06.683Z,81.88
2018-05-02T04:09:06.656Z,82.36
2018-05-02T04:10:06.627Z,82.36
2018-05-02T04:11:06.842Z,82.46
2018-05-02T04:12:06.816Z,82.27
2018-05-02T04:13:06.787Z,82.17
2018-05-02T04:14:06.841Z,81.7
2018-05-02T04:15:06.728Z,81.7
2018-05-02T04:16:06.701Z,81.88
2018-05-02T04:17:06.675Z,82.36
2018-05-02T04:18:06.646Z,82.55
2018-05-02T04:19:06.621Z,82.36
2018-05-02T04:20:06.585Z,82.36
2018-05-02T04:21:06.557Z,81.7
2018-05-02T04:22:06.282Z,82.74
2018-05-02T04:23:06.505Z,82.27
2018-05-02T04:24:06.474Z,82.08
2018-05-02T04:25:06.458Z,82.08
2018-05-02T04:26:06.213Z,81.88
2018-05-02T04:27:06.141Z,81.88
2018-05-02T04:28:06.112Z,81.79
2018-05-02T04:29:06.336Z,81.88
2018-05-02T04:30:06.307Z,82.17
2018-05-02T04:31:06.279Z,81.88
2018-05-02T04:32:06.001Z,82.17
2018-05-02T04:33:06.220Z,81.7
2018-05-02T04:34:05.945Z,81.6
2018-05-02T04:35:06.162Z,81.88
2018-05-02T04:36:06.162Z,81.41
2018-05-02T04:37:06.107Z,81.6
2018-05-02T04:38:05.834Z,81.04
2018-05-02T04:39:06.053Z,81.23
2018-05-02T04:40:05.773Z,81.41
2018-05-02T04:41:06.171Z,81.23
2018-05-02T04:42:05.965Z,81.13
2018-05-02T04:43:05.689Z,81.13
2018-05-02T04:44:05.663Z,81.36
2018-05-02T04:45:05.635Z,81.17
2018-05-02T04:46:05.706Z,80.79
2018-05-02T04:47:05.579Z,80.88
2018-05-02T04:48:05.800Z,80.69
2018-05-02T04:49:05.770Z,80.6
2018-05-02T04:50:05.743Z,80.69
2018-05-02T04:51:05.465Z,80.79
2018-05-02T04:52:05.687Z,80.51
2018-05-02T04:53:05.660Z,80.41
2018-05-02T04:54:05.628Z,80.22
2018-05-02T04:55:05.354Z,80.32
2018-05-02T04:56:05.576Z,80.03
2018-05-02T04:57:05.558Z,79.84
2018-05-02T04:58:05.521Z,80.13
2018-05-02T04:59:05.496Z,79.94
2018-05-02T05:00:05.463Z,80.13
2018-05-02T05:01:05.435Z,79.46
2018-05-02T05:02:05.414Z,79.55
2018-05-02T05:03:05.380Z,79.74
2018-05-02T05:04:05.353Z,79.74
2018-05-02T05:05:05.323Z,79.74
2018-05-02T05:06:05.302Z,79.17
2018-05-02T05:07:05.025Z,79.36
2018-05-02T05:08:05.241Z,78.99
2018-05-02T05:09:05.215Z,79.36
2018-05-02T05:10:04.937Z,79.08
2018-05-02T05:11:05.157Z,78.89
2018-05-02T05:12:05.130Z,79.17
2018-05-02T05:13:05.103Z,78.7
2018-05-02T05:14:05.079Z,78.61
2018-05-02T05:15:05.049Z,78.36
2018-05-02T05:16:04.771Z,78.55
2018-05-02T05:17:05.000Z,78.8
2018-05-02T05:18:04.968Z,78.27
2018-05-02T05:19:04.689Z,78.27
2018-05-02T05:20:04.664Z,78.27
2018-05-02T05:21:04.634Z,78.17
2018-05-02T05:22:04.864Z,78.36
2018-05-02T05:23:04.828Z,77.7
2018-05-02T05:24:04.803Z,77.89
2018-05-02T05:25:04.527Z,77.89
2018-05-02T05:26:04.500Z,77.7
2018-05-02T05:27:04.474Z,77.12
2018-05-02T05:28:04.696Z,77.22
2018-05-02T05:29:04.679Z,76.93
2018-05-02T05:30:04.392Z,76.84
2018-05-02T05:31:04.365Z,77.22
2018-05-02T05:32:04.594Z,76.75
2018-05-02T05:33:04.562Z,76.65
2018-05-02T05:34:04.544Z,76.37
2018-05-02T05:35:04.511Z,76.21
2018-05-02T05:36:04.482Z,76.12
2018-05-02T05:37:04.202Z,75.93
2018-05-02T05:38:04.181Z,75.93
2018-05-02T05:39:04.407Z,75.74
2018-05-02T05:40:04.372Z,75.55
2018-05-02T05:41:04.347Z,75.17
2018-05-02T05:42:04.074Z,75.36
2018-05-02T05:43:04.048Z,74.79
2018-05-02T05:44:04.269Z,74.88
2018-05-02T05:45:04.248Z,75.07
2018-05-02T05:46:03.965Z,74.31
2018-05-02T05:47:04.186Z,74.51
2018-05-02T05:48:04.157Z,74.31
2018-05-02T05:49:03.890Z,74.6
2018-05-02T05:50:03.861Z,74.12
2018-05-02T05:51:03.834Z,74.63
2018-05-02T05:52:03.810Z,74.35
2018-05-02T05:53:04.043Z,73.88
2018-05-02T05:54:03.788Z,73.59
2018-05-02T05:55:03.981Z,73.88
2018-05-02T05:56:03.703Z,73.4
2018-05-02T05:57:03.679Z,72.92
2018-05-02T05:58:03.654Z,72.11
2018-05-02T05:59:03.627Z,72.11
2018-05-02T06:00:03.852Z,71.63
2018-05-02T06:01:03.827Z,71.15
2018-05-02T06:02:03.554Z,70.81
2018-05-02T06:03:03.529Z,70.52
2018-05-02T06:04:03.755Z,70.14
2018-05-02T06:05:03.761Z,70.05
2018-05-02T06:06:03.454Z,69.57
2018-05-02T06:07:03.689Z,69.95
2018-05-02T06:08:03.657Z,69.29
2018-05-02T06:09:03.388Z,68.81
2018-05-02T06:10:03.610Z,69.23
2018-05-02T06:11:03.340Z,68.75
2018-05-02T06:12:03.567Z,68.37
2018-05-02T06:13:03.543Z,68.56
2018-05-02T06:14:03.520Z,68.08
2018-05-02T06:15:03.505Z,67.99
2018-05-02T06:16:03.477Z,67.74
2018-05-02T06:17:03.454Z,67.41
2018-05-02T06:18:03.432Z,67.03
2018-05-02T06:19:03.161Z,67.45
2018-05-02T06:20:03.790Z,66.59
2018-05-02T06:21:03.119Z,66.59
2018-05-02T06:22:03.347Z,66.97
2018-05-02T06:23:03.322Z,66.59
2018-05-02T06:24:03.304Z,66.31
2018-05-02T06:25:03.032Z,66.02
2018-05-02T06:26:03.018Z,66.21
2018-05-02T06:27:03.237Z,65.64
2018-05-02T06:28:03.215Z,65.92
2018-05-02T06:29:03.193Z,65.55
2018-05-02T06:30:03.183Z,65.07
2018-05-02T06:31:03.154Z,65.07
2018-05-02T06:32:03.359Z,65.07
2018-05-02T06:33:03.114Z,64.91
2018-05-02T06:34:03.089Z,64.62
2018-05-02T06:35:03.073Z,64.43
2018-05-02T06:36:03.052Z,64.24
2018-05-02T06:37:02.780Z,63.57
2018-05-02T06:38:03.022Z,64.05
2018-05-02T06:39:02.993Z,63.48
2018-05-02T06:40:02.977Z,63.2
2018-05-02T06:41:02.989Z,63.1
2018-05-02T06:42:02.931Z,63
2018-05-02T06:43:02.913Z,63.2
2018-05-02T06:44:02.892Z,62.94
2018-05-02T06:45:02.868Z,62.56
2018-05-02T06:46:02.849Z,62.37
2018-05-02T06:47:02.833Z,62.37
2018-05-02T06:48:02.566Z,61.89
2018-05-02T06:49:02.799Z,61.6
2018-05-02T06:50:02.776Z,61.6
2018-05-02T06:51:02.756Z,61.41
2018-05-02T06:52:02.737Z,61.07
2018-05-02T06:53:02.725Z,60.68
2018-05-02T06:54:02.699Z,60.49
2018-05-02T06:55:02.688Z,60.11
2018-05-02T06:56:02.662Z,59.92
2018-05-02T06:57:02.643Z,59.63
2018-05-02T06:58:02.624Z,60.02
2018-05-02T06:59:02.609Z,59.82
2018-05-02T07:00:02.588Z,59.82
2018-05-02T07:01:02.571Z,59.25
2018-05-02T07:02:02.554Z,59.73
2018-05-02T07:03:02.532Z,59.44
2018-05-02T07:04:02.514Z,59.06
2018-05-02T07:05:02.499Z,58.68
2018-05-02T07:06:02.478Z,58.77
2018-05-02T07:07:02.214Z,58.68
2018-05-02T07:08:02.444Z,58.29
2018-05-02T07:09:02.424Z,57.94
2018-05-02T07:10:02.422Z,57.65
2018-05-02T07:11:02.389Z,57.56
2018-05-02T07:12:02.384Z,57.09
2018-05-02T07:13:02.359Z,56.99
2018-05-02T07:14:02.090Z,57.18
2018-05-02T07:15:02.323Z,56.41
2018-05-02T07:16:02.310Z,56.23
2018-05-02T07:17:02.288Z,55.96
2018-05-02T07:18:02.276Z,55.96
2018-05-02T07:19:02.259Z,55.58
2018-05-02T07:20:02.251Z,55.68
2018-05-02T07:21:02.229Z,54.82
2018-05-02T07:22:02.214Z,55.01
2018-05-02T07:23:02.193Z,54.44
2018-05-02T07:24:02.279Z,54.82
2018-05-02T07:25:02.166Z,54.06
2018-05-02T07:26:02.148Z,53.86
2018-05-02T07:27:02.139Z,54.06
2018-05-02T07:28:02.120Z,53.77
2018-05-02T07:29:02.098Z,53.67
2018-05-02T07:30:01.835Z,53.86
2018-05-02T07:31:02.080Z,53.77
2018-05-02T07:32:02.052Z,52.91
2018-05-02T07:33:02.234Z,53
2018-05-02T07:34:02.025Z,52.81
2018-05-02T07:35:01.756Z,52.72
2018-05-02T07:36:01.997Z,52.53
2018-05-02T07:37:01.981Z,52.65
2018-05-02T07:38:01.961Z,51.98
2018-05-02T07:39:01.944Z,51.79
2018-05-02T07:40:01.930Z,51.98
2018-05-02T07:41:01.911Z,52.05
2018-05-02T07:42:02.072Z,52.08
2018-05-02T07:43:01.897Z,51.5
2018-05-02T07:44:01.932Z,51.41
2018-05-02T07:45:01.702Z,51.5
2018-05-02T07:46:01.956Z,51.03
2018-05-02T07:47:01.978Z,51.21
2018-05-02T07:48:01.802Z,50.74
2018-05-02T07:49:01.559Z,50.74
2018-05-02T07:50:01.776Z,51.15
2018-05-02T07:51:01.513Z,51.24
2018-05-02T07:52:01.496Z,50.76
2018-05-02T07:53:01.741Z,50.19
2018-05-02T07:54:01.718Z,50
2018-05-02T07:55:01.455Z,49.9
2018-05-02T07:56:01.735Z,49.52
2018-05-02T07:57:01.700Z,49.8
2018-05-02T07:58:01.790Z,48.78
2018-05-02T07:59:01.645Z,48.88
2018-05-02T08:00:01.637Z,49.45
2018-05-02T08:01:01.621Z,48.88
2018-05-02T08:02:01.605Z,48.39
2018-05-02T08:03:01.587Z,48.68
2018-05-02T08:04:01.570Z,47.92
2018-05-02T08:05:01.310Z,47.63
2018-05-02T08:06:01.301Z,47.53
2018-05-02T08:07:01.528Z,46.96
2018-05-02T08:08:01.517Z,46.89
2018-05-02T08:09:01.505Z,46.98
2018-05-02T08:10:01.490Z,46.98
2018-05-02T08:11:01.614Z,46.03
2018-05-02T08:12:01.464Z,46.31
2018-05-02T08:13:01.458Z,46.05
2018-05-02T08:14:01.190Z,45.67
2018-05-02T08:15:01.424Z,45.96
2018-05-02T08:16:01.417Z,45.76
2018-05-02T08:17:01.402Z,45.29
2018-05-02T08:18:01.388Z,45.09
2018-05-02T08:19:01.380Z,45.38
2018-05-02T08:20:01.360Z,45.38
2018-05-02T08:21:01.347Z,45.38
2018-05-02T08:22:01.424Z,44.9
2018-05-02T08:23:01.322Z,45.09
2018-05-02T08:24:01.313Z,45.09
2018-05-02T08:25:01.294Z,44.52
2018-05-02T08:26:01.283Z,44.81
2018-05-02T08:27:01.421Z,44.62
2018-05-02T08:28:01.002Z,44.79
2018-05-02T08:29:01.241Z,44.69
2018-05-02T08:30:01.224Z,44.59
2018-05-02T08:31:01.209Z,45.17
2018-05-02T08:32:01.195Z,45.36
2018-05-02T08:33:01.219Z,45.05
2018-05-02T08:34:01.167Z,45.24
2018-05-02T08:35:00.898Z,45.72
2018-05-02T08:36:01.132Z,45.72
2018-05-02T08:37:01.115Z,45.91
2018-05-02T08:38:01.101Z,46.01
2018-05-02T08:39:00.835Z,45.53
2018-05-02T08:40:01.069Z,45.72
2018-05-02T08:41:01.053Z,45.91
2018-05-02T08:42:01.038Z,45.72
2018-05-02T08:43:00.770Z,45.43
2018-05-02T08:44:01.002Z,46.08
2018-05-02T08:45:00.989Z,45.98
